createdAt,value
2016-11-18T00:03:29.959Z,994.6
2016-11-18T00:08:34.378Z,995
2016-11-18T00:13:38.796Z,994.7
2016-11-18T00:18:43.221Z,994.8
2016-11-18T00:23:47.644Z,994.7
2016-11-18T00:28:52.070Z,994.8
2016-11-18T00:33:56.497Z,995
2016-11-18T00:39:00.595Z,995
2016-11-18T00:44:04.680Z,995
2016-11-18T00:49:08.769Z,995.1
2016-11-18T00:54:12.856Z,995
2016-11-18T00:59:17.281Z,995
2016-11-18T01:04:21.713Z,995
2016-11-18T01:09:26.464Z,994.6
2016-11-18T01:14:30.555Z,994.2
2016-11-18T01:19:34.643Z,994.1
2016-11-18T01:24:38.732Z,994
2016-11-18T01:29:42.822Z,993.9
2016-11-18T01:34:46.922Z,994
2016-11-18T01:39:51.370Z,994.4
2016-11-18T01:44:56.129Z,994.3
2016-11-18T01:50:00.217Z,994.4
2016-11-18T01:55:04.638Z,994.4
2016-11-18T02:00:09.056Z,994.3
2016-11-18T02:05:13.144Z,994
2016-11-18T02:10:17.225Z,993.9
2016-11-18T02:15:21.654Z,994
2016-11-18T02:20:26.081Z,993.6
2016-11-18T02:25:30.506Z,993.6
2016-11-18T02:30:34.587Z,993.7
2016-11-18T02:35:39.011Z,993.6
2016-11-18T02:40:43.773Z,993.4
2016-11-18T02:45:47.857Z,993.2
2016-11-18T02:50:52.278Z,993.4
2016-11-18T02:55:56.365Z,993.5
2016-11-18T03:01:00.450Z,993.6
2016-11-18T03:06:05.209Z,993.7
2016-11-18T03:11:09.299Z,993.6
2016-11-18T03:16:13.391Z,993.4
2016-11-18T03:21:17.815Z,993.2
2016-11-18T03:26:22.253Z,993.3
2016-11-18T03:31:26.678Z,993.3
2016-11-18T03:36:31.105Z,993.4
2016-11-18T03:41:35.191Z,993.3
2016-11-18T03:46:39.284Z,993.1
2016-11-18T03:51:43.371Z,993.2
2016-11-18T03:56:47.457Z,993
2016-11-18T04:01:51.546Z,992.8
2016-11-18T04:06:55.970Z,992.8
2016-11-18T04:12:00.058Z,992.7
2016-11-18T04:17:04.147Z,992.7
2016-11-18T04:22:08.569Z,993
2016-11-18T04:27:12.984Z,993
2016-11-18T04:32:17.071Z,992.8
2016-11-18T04:37:21.490Z,992.8
2016-11-18T04:42:25.578Z,992.8
2016-11-18T04:47:30.009Z,992.8
2016-11-18T04:52:34.099Z,992.9
2016-11-18T04:57:38.184Z,992.8
2016-11-18T05:02:42.290Z,992.8
2016-11-18T05:07:46.720Z,992.7
2016-11-18T05:12:50.818Z,992.7
2016-11-18T05:17:55.249Z,993.1
2016-11-18T05:22:59.671Z,993.3
2016-11-18T05:28:03.760Z,993.3
2016-11-18T05:33:08.208Z,993.4
2016-11-18T05:38:12.306Z,993.5
2016-11-18T05:43:16.737Z,993.7
2016-11-18T05:48:20.826Z,993.7
2016-11-18T05:53:24.921Z,993.7
2016-11-18T05:58:29.350Z,993.7
2016-11-18T06:03:33.442Z,993.6
2016-11-18T06:08:37.525Z,993.6
2016-11-18T06:13:41.954Z,993.5
2016-11-18T06:18:46.386Z,993.5
2016-11-18T06:23:50.468Z,993.3
2016-11-18T06:28:54.562Z,993.1
2016-11-18T06:33:58.652Z,992.8
2016-11-18T06:39:03.127Z,992.2
2016-11-18T06:44:07.221Z,992.3
2016-11-18T06:49:12.192Z,991.9
2016-11-18T06:54:16.278Z,991.7
2016-11-18T06:59:20.368Z,991.7
2016-11-18T07:04:24.459Z,992.1
2016-11-18T07:09:28.887Z,992.6
2016-11-18T07:14:33.516Z,992.6
2016-11-18T07:19:37.608Z,992.5
2016-11-18T07:24:42.031Z,992.8
2016-11-18T07:29:46.129Z,992.9
2016-11-18T07:34:50.556Z,993.1
2016-11-18T07:39:55.317Z,993.2
2016-11-18T07:44:59.754Z,992.9
2016-11-18T07:50:03.869Z,992.6
2016-11-18T07:55:08.297Z,992.9
2016-11-18T08:00:12.722Z,993.4
2016-11-18T08:05:17.151Z,994
2016-11-18T08:10:21.245Z,994
2016-11-18T08:15:26.047Z,994.1
2016-11-18T08:20:30.148Z,994.1
2016-11-18T08:25:34.575Z,993.8
2016-11-18T08:30:38.998Z,993.7
2016-11-18T08:35:43.093Z,993.6
2016-11-18T08:40:47.517Z,993.5
2016-11-18T08:45:51.611Z,993.2
2016-11-18T08:50:56.373Z,993.2
2016-11-18T08:56:01.136Z,993.2
2016-11-18T09:01:05.226Z,993.4
2016-11-18T09:06:09.317Z,993.7
2016-11-18T09:11:13.410Z,993.5
2016-11-18T09:16:17.499Z,993.5
2016-11-18T09:21:21.935Z,993.8
2016-11-18T09:26:26.026Z,993.8
2016-11-18T09:31:30.125Z,993.9
2016-11-18T09:36:34.548Z,993.8
2016-11-18T09:41:39.312Z,993.8
2016-11-18T09:46:43.402Z,993.7
2016-11-18T09:51:47.500Z,993.6
2016-11-18T09:56:51.931Z,993.6
2016-11-18T10:01:56.365Z,993.7
2016-11-18T10:07:00.464Z,993.9
2016-11-18T10:12:04.555Z,994.1
2016-11-18T10:17:08.998Z,994.1
2016-11-18T10:22:13.431Z,994
2016-11-18T10:27:17.533Z,994
2016-11-18T10:32:21.627Z,994.1
2016-11-18T10:37:26.057Z,994.3
2016-11-18T10:42:30.483Z,994.2
2016-11-18T10:47:34.584Z,994.2
2016-11-18T10:52:39.029Z,994.4
2016-11-18T10:57:43.109Z,994.4
2016-11-18T11:02:47.533Z,994.5
2016-11-18T11:07:52.315Z,994.5
2016-11-18T11:12:56.750Z,994.5
2016-11-18T11:18:01.861Z,994.5
2016-11-18T11:23:05.977Z,994.6
2016-11-18T11:28:10.497Z,994.5
2016-11-18T11:33:14.589Z,994.5
2016-11-18T11:38:18.687Z,994.6
2016-11-18T11:43:22.784Z,994.7
2016-11-18T11:48:27.222Z,994.8
2016-11-18T11:53:31.655Z,994.6
2016-11-18T11:58:36.420Z,994.6
2016-11-18T12:03:40.510Z,994.7
2016-11-18T12:08:45.276Z,994.9
2016-11-18T12:13:49.707Z,994.9
2016-11-18T12:18:54.479Z,995
2016-11-18T12:23:58.574Z,995
2016-11-18T12:29:02.670Z,995.1
2016-11-18T12:34:07.440Z,995.1
2016-11-18T12:39:11.868Z,995.2
2016-11-18T12:44:15.970Z,995.1
2016-11-18T12:49:20.074Z,995.2
2016-11-18T12:54:24.177Z,995.4
2016-11-18T12:59:28.274Z,995.3
2016-11-18T13:04:32.717Z,995.4
2016-11-18T13:09:37.151Z,995.5
2016-11-18T13:14:41.581Z,995.4
2016-11-18T13:19:46.010Z,995.6
2016-11-18T13:24:50.453Z,995.6
2016-11-18T13:29:54.882Z,995.7
2016-11-18T13:34:58.985Z,995.7
2016-11-18T13:40:03.414Z,995.8
2016-11-18T13:45:07.516Z,995.9
2016-11-18T13:50:11.940Z,995.9
2016-11-18T13:55:16.372Z,996
2016-11-18T14:00:20.471Z,996
2016-11-18T14:05:25.113Z,996.1
2016-11-18T14:10:29.208Z,996.2
2016-11-18T14:15:33.307Z,996.2
2016-11-18T14:20:37.395Z,996.1
2016-11-18T14:25:41.487Z,996.2
2016-11-18T14:30:45.585Z,996.2
2016-11-18T14:35:49.680Z,996.2
2016-11-18T14:40:54.442Z,996.3
2016-11-18T14:45:58.869Z,996.4
2016-11-18T14:51:03.299Z,996.4
2016-11-18T14:56:07.399Z,996.4
2016-11-18T15:01:12.717Z,996.5
2016-11-18T15:06:17.149Z,996.6
2016-11-18T15:11:21.241Z,996.7
2016-11-18T15:16:25.349Z,996.8
2016-11-18T15:21:29.807Z,996.9
2016-11-18T15:26:34.918Z,996.9
2016-11-18T15:31:39.013Z,997
2016-11-18T15:36:43.498Z,997.1
2016-11-18T15:41:47.590Z,997.1
2016-11-18T15:46:51.686Z,997.2
2016-11-18T15:51:55.787Z,997.2
2016-11-18T15:57:00.219Z,997.3
2016-11-18T16:02:04.313Z,997.4
2016-11-18T16:07:08.823Z,997.5
2016-11-18T16:12:12.918Z,997.6
2016-11-18T16:17:17.037Z,997.6
2016-11-18T16:22:21.800Z,997.7
2016-11-18T16:27:25.889Z,997.7
2016-11-18T16:32:29.981Z,997.8
2016-11-18T16:37:34.408Z,997.9
2016-11-18T16:42:38.495Z,998
2016-11-18T16:47:42.949Z,998.1
2016-11-18T16:52:47.120Z,998.1
2016-11-18T16:57:51.265Z,998.2
2016-11-18T17:02:55.692Z,998.2
2016-11-18T17:08:00.002Z,998.2
2016-11-18T17:13:04.092Z,998.3
2016-11-18T17:18:08.187Z,998.3
2016-11-18T17:23:12.287Z,998.3
2016-11-18T17:28:16.421Z,998.4
2016-11-18T17:33:20.907Z,998.5
2016-11-18T17:38:25.577Z,998.5
2016-11-18T17:43:29.667Z,998.5
2016-11-18T17:48:33.763Z,998.6
2016-11-18T17:53:38.182Z,998.7
2016-11-18T17:58:42.272Z,998.7
2016-11-18T18:03:46.699Z,998.8
2016-11-18T18:08:50.911Z,998.8
2016-11-18T18:13:55.674Z,998.9
2016-11-18T18:18:59.778Z,998.9
2016-11-18T18:24:04.207Z,998.9
2016-11-18T18:29:08.299Z,998.9
2016-11-18T18:34:12.726Z,999.1
2016-11-18T18:39:16.820Z,999.2
2016-11-18T18:44:20.915Z,999.3
2016-11-18T18:49:25.010Z,999.4
2016-11-18T18:54:29.767Z,999.6
2016-11-18T18:59:33.855Z,999.6
2016-11-18T19:04:37.954Z,999.5
2016-11-18T19:09:42.381Z,999.5
2016-11-18T19:14:46.805Z,999.5
2016-11-18T19:19:51.223Z,999.6
2016-11-18T19:24:55.319Z,999.6
2016-11-18T19:29:59.748Z,999.6
2016-11-18T19:35:03.841Z,999.5
2016-11-18T19:40:07.942Z,999.6
2016-11-18T19:45:12.375Z,999.6
2016-11-18T19:50:17.142Z,999.6
2016-11-18T19:55:21.239Z,999.8
2016-11-18T20:00:25.338Z,999.9
2016-11-18T20:05:29.431Z,1000
2016-11-18T20:10:34.202Z,1000
2016-11-18T20:15:38.640Z,1000.1
2016-11-18T20:20:43.074Z,1000.2
2016-11-18T20:25:47.848Z,1000.3
2016-11-18T20:30:52.603Z,1000.5
2016-11-18T20:35:56.700Z,1000.4
2016-11-18T20:41:01.123Z,1000.4
2016-11-18T20:46:05.214Z,1000.6
2016-11-18T20:51:09.321Z,1000.7
2016-11-18T20:56:13.745Z,1000.8
2016-11-18T21:01:18.170Z,1000.8
2016-11-18T21:06:22.601Z,1000.9
2016-11-18T21:11:27.030Z,1000.9
2016-11-18T21:16:31.656Z,1001
2016-11-18T21:21:35.741Z,1001.1
2016-11-18T21:26:39.840Z,1001.3
2016-11-18T21:31:44.262Z,1001.4
2016-11-18T21:36:48.355Z,1001.6
2016-11-18T21:41:52.781Z,1001.7
2016-11-18T21:46:56.874Z,1001.8
2016-11-18T21:52:01.303Z,1001.8
2016-11-18T21:57:05.399Z,1001.9
2016-11-18T22:02:09.499Z,1001.8
2016-11-18T22:07:13.922Z,1001.9
2016-11-18T22:12:18.377Z,1002
2016-11-18T22:17:22.489Z,1002.1
2016-11-18T22:22:26.581Z,1002.1
2016-11-18T22:27:31.006Z,1002.1
2016-11-18T22:32:35.443Z,1002.2
2016-11-18T22:37:39.550Z,1002.3
2016-11-18T22:42:43.656Z,1002.5
2016-11-18T22:47:47.766Z,1002.6
2016-11-18T22:52:52.868Z,1002.8
2016-11-18T22:57:57.294Z,1003
2016-11-18T23:03:01.406Z,1003.1
2016-11-18T23:08:05.825Z,1003.1
2016-11-18T23:13:10.591Z,1003.2
2016-11-18T23:18:14.686Z,1003.2
2016-11-18T23:23:18.780Z,1003.3
2016-11-18T23:28:22.871Z,1003.4
2016-11-18T23:33:26.960Z,1003.5
2016-11-18T23:38:31.044Z,1003.5
2016-11-18T23:43:35.465Z,1003.5
2016-11-18T23:48:40.566Z,1003.6
2016-11-18T23:53:44.655Z,1003.6
2016-11-18T23:58:48.754Z,1003.7
